sensor_id;sensor_type;location;lat;lon;timestamp;P1;durP1;ratioP1;P2;durP2;ratioP2
36555;SDS011;40859;50.560;7.268;2023-01-06T06:47:26;4.07;;;0.75;;
36555;SDS011;40859;50.560;7.268;2023-01-06T06:49:52;4.68;;;0.68;;
36555;SDS011;40859;50.560;7.268;2023-01-06T06:52:17;3.25;;;0.60;;
36555;SDS011;40859;50.560;7.268;2023-01-06T06:54:43;1.80;;;1.30;;
36555;SDS011;40859;50.560;7.268;2023-01-06T06:57:09;4.97;;;1.33;;
36555;SDS011;40859;50.560;7.268;2023-01-06T06:59:35;6.03;;;1.02;;
36555;SDS011;40859;50.560;7.268;2023-01-06T07:02:01;3.28;;;0.88;;
36555;SDS011;40859;50.560;7.268;2023-01-06T07:04:26;1.80;;;0.60;;
36555;SDS011;40859;50.560;7.268;2023-01-06T07:06:53;4.05;;;0.73;;
36555;SDS011;40859;50.560;7.268;2023-01-06T07:09:20;2.55;;;0.85;;
36555;SDS011;40859;50.560;7.268;2023-01-06T07:11:46;3.72;;;0.90;;
36555;SDS011;40859;50.560;7.268;2023-01-06T07:14:12;2.55;;;1.00;;
36555;SDS011;40859;50.560;7.268;2023-01-06T07:16:38;4.40;;;1.30;;
36555;SDS011;40859;50.560;7.268;2023-01-06T07:19:03;4.62;;;0.93;;
36555;SDS011;40859;50.560;7.268;2023-01-06T07:21:29;8.35;;;1.60;;
36555;SDS011;40859;50.560;7.268;2023-01-06T07:23:55;9.57;;;1.73;;
36555;SDS011;40859;50.560;7.268;2023-01-06T07:26:21;4.37;;;0.80;;
36555;SDS011;40859;50.560;7.268;2023-01-06T07:28:47;2.45;;;1.10;;
36555;SDS011;40859;50.560;7.268;2023-01-06T07:31:13;11.65;;;1.50;;
36555;SDS011;40859;50.560;7.268;2023-01-06T07:33:39;5.95;;;1.20;;
36555;SDS011;40859;50.560;7.268;2023-01-06T07:36:05;4.37;;;0.98;;
36555;SDS011;40859;50.560;7.268;2023-01-06T07:38:31;6.43;;;1.15;;
36555;SDS011;40859;50.560;7.268;2023-01-06T07:40:58;4.05;;;0.88;;
36555;SDS011;40859;50.560;7.268;2023-01-06T07:43:25;7.57;;;2.58;;
36555;SDS011;40859;50.560;7.268;2023-01-06T07:45:51;4.80;;;1.12;;
36555;SDS011;40859;50.560;7.268;2023-01-06T07:48:17;7.68;;;0.90;;
36555;SDS011;40859;50.560;7.268;2023-01-06T07:50:43;6.70;;;1.12;;
36555;SDS011;40859;50.560;7.268;2023-01-06T07:53:09;3.05;;;0.75;;
36555;SDS011;40859;50.560;7.268;2023-01-06T07:55:35;3.53;;;1.12;;
36555;SDS011;40859;50.560;7.268;2023-01-06T07:58:06;9.82;;;2.20;;
36555;SDS011;40859;50.560;7.268;2023-01-06T17:42:39;11.93;;;2.80;;
36555;SDS011;40859;50.560;7.268;2023-01-06T17:45:13;23.65;;;3.50;;
36555;SDS011;40859;50.560;7.268;2023-01-06T17:47:49;18.15;;;3.35;;
36555;SDS011;40859;50.560;7.268;2023-01-06T17:51:16;13.95;;;3.28;;
36555;SDS011;40859;50.560;7.268;2023-01-06T17:53:43;15.73;;;2.97;;
36555;SDS011;40859;50.560;7.268;2023-01-06T17:58:53;15.52;;;3.58;;
36555;SDS011;40859;50.560;7.268;2023-01-06T18:01:22;17.73;;;3.55;;
36555;SDS011;40859;50.560;7.268;2023-01-06T18:03:51;7.40;;;2.28;;
36555;SDS011;40859;50.560;7.268;2023-01-06T18:09:19;19.23;;;2.58;;
36555;SDS011;40859;50.560;7.268;2023-01-06T18:11:51;13.93;;;2.87;;
36555;SDS011;40859;50.560;7.268;2023-01-06T18:14:24;9.35;;;2.50;;
36555;SDS011;40859;50.560;7.268;2023-01-06T18:16:56;15.10;;;2.13;;
36555;SDS011;40859;50.560;7.268;2023-01-06T18:19:29;14.10;;;2.58;;
36555;SDS011;40859;50.560;7.268;2023-01-06T18:21:58;21.65;;;2.78;;
36555;SDS011;40859;50.560;7.268;2023-01-06T18:24:36;9.68;;;2.42;;
36555;SDS011;40859;50.560;7.268;2023-01-06T18:29:49;9.68;;;2.70;;
36555;SDS011;40859;50.560;7.268;2023-01-06T18:35:05;12.35;;;2.70;;
36555;SDS011;40859;50.560;7.268;2023-01-06T18:37:47;14.13;;;2.40;;
36555;SDS011;40859;50.560;7.268;2023-01-06T18:40:17;8.60;;;2.25;;
36555;SDS011;40859;50.560;7.268;2023-01-06T18:42:47;7.25;;;1.87;;
36555;SDS011;40859;50.560;7.268;2023-01-06T18:45:16;7.65;;;2.33;;
36555;SDS011;40859;50.560;7.268;2023-01-06T18:48:20;8.82;;;2.10;;
36555;SDS011;40859;50.560;7.268;2023-01-06T18:50:56;9.13;;;2.33;;
36555;SDS011;40859;50.560;7.268;2023-01-06T18:53:26;12.57;;;2.08;;
36555;SDS011;40859;50.560;7.268;2023-01-06T18:56:02;14.35;;;2.33;;
36555;SDS011;40859;50.560;7.268;2023-01-06T19:01:28;12.48;;;1.70;;
36555;SDS011;40859;50.560;7.268;2023-01-06T19:04:29;12.18;;;2.10;;
36555;SDS011;40859;50.560;7.268;2023-01-06T19:06:57;12.95;;;1.60;;
36555;SDS011;40859;50.560;7.268;2023-01-06T19:09:32;7.18;;;1.62;;
36555;SDS011;40859;50.560;7.268;2023-01-06T19:15:14;11.30;;;1.87;;
36555;SDS011;40859;50.560;7.268;2023-01-06T19:17:49;6.32;;;1.65;;
36555;SDS011;40859;50.560;7.268;2023-01-06T19:20:25;20.50;;;2.17;;
36555;SDS011;40859;50.560;7.268;2023-01-06T19:22:53;8.43;;;1.65;;
36555;SDS011;40859;50.560;7.268;2023-01-06T19:25:37;9.13;;;1.65;;
36555;SDS011;40859;50.560;7.268;2023-01-06T19:28:12;5.05;;;1.40;;
36555;SDS011;40859;50.560;7.268;2023-01-06T19:34:00;5.70;;;1.30;;
36555;SDS011;40859;50.560;7.268;2023-01-06T19:36:39;7.72;;;2.00;;
36555;SDS011;40859;50.560;7.268;2023-01-06T19:39:29;14.07;;;2.00;;
36555;SDS011;40859;50.560;7.268;2023-01-06T19:44:35;5.30;;;1.52;;
36555;SDS011;40859;50.560;7.268;2023-01-06T19:47:16;2.30;;;1.40;;
36555;SDS011;40859;50.560;7.268;2023-01-06T19:49:48;10.18;;;1.58;;
36555;SDS011;40859;50.560;7.268;2023-01-06T19:52:33;8.43;;;1.40;;
